createdAt,value
2022-11-02T00:03:05.232Z,82.12
2022-11-02T00:06:48.060Z,82.42
2022-11-02T00:10:30.941Z,82.27
2022-11-02T00:14:15.111Z,82.63
2022-11-02T00:18:00.772Z,82.83
2022-11-02T00:21:43.759Z,82.64
2022-11-02T00:25:27.578Z,82.76
2022-11-02T00:29:10.486Z,83.03
2022-11-02T00:32:54.477Z,83.07
2022-11-02T00:36:37.088Z,82.99
2022-11-02T00:40:19.886Z,83.08
2022-11-02T00:44:02.719Z,83.10
2022-11-02T00:47:45.475Z,83.53
2022-11-02T00:51:29.524Z,83.41
2022-11-02T00:55:13.010Z,83.39
2022-11-02T00:58:55.645Z,82.74
2022-11-02T01:02:39.695Z,83.03
2022-11-02T01:06:22.575Z,83.58
2022-11-02T01:10:07.538Z,83.64
2022-11-02T01:13:52.169Z,83.41
2022-11-02T01:17:35.019Z,82.95
2022-11-02T01:21:17.672Z,83.24
2022-11-02T01:25:00.388Z,84.01
2022-11-02T01:28:51.984Z,85.03
2022-11-02T01:32:34.759Z,84.91
2022-11-02T01:40:09.826Z,85.09
2022-11-02T01:43:56.505Z,85.98
2022-11-02T01:47:40.067Z,85.29
2022-11-02T01:51:24.602Z,85.32
2022-11-02T01:55:12.104Z,85.92
2022-11-02T01:58:59.045Z,85.99
2022-11-02T02:02:46.749Z,85.65
2022-11-02T02:06:29.459Z,84.89
2022-11-02T02:10:12.948Z,84.75
2022-11-02T02:13:59.932Z,85.14
2022-11-02T02:17:46.708Z,85.69
2022-11-02T02:21:39.101Z,85.60
2022-11-02T02:25:27.918Z,85.57
2022-11-02T02:29:16.606Z,85.64
2022-11-02T02:33:03.110Z,85.85
2022-11-02T02:36:49.075Z,86.47
2022-11-02T02:40:35.525Z,86.60
2022-11-02T02:44:23.399Z,87.78
2022-11-02T02:48:14.626Z,87.11
2022-11-02T02:51:57.900Z,86.92
2022-11-02T02:55:44.072Z,87.03
2022-11-02T02:59:30.552Z,87.18
2022-11-02T03:03:18.494Z,86.69
2022-11-02T03:07:05.091Z,86.05
2022-11-02T03:10:49.841Z,86.20
2022-11-02T03:14:39.515Z,86.33
2022-11-02T03:18:33.604Z,85.87
2022-11-02T03:22:22.569Z,86.57
2022-11-02T03:26:09.529Z,86.37
2022-11-02T03:29:57.285Z,86.64
2022-11-02T03:33:44.221Z,86.89
2022-11-02T03:37:29.275Z,86.34
2022-11-02T03:41:12.621Z,85.58
2022-11-02T03:44:59.714Z,85.47
2022-11-02T03:48:44.911Z,85.79
2022-11-02T03:52:30.599Z,86.22
2022-11-02T03:56:17.503Z,86.15
2022-11-02T04:00:10.202Z,86.01
2022-11-02T04:03:52.888Z,86.10
2022-11-02T04:07:55.423Z,85.95
2022-11-02T04:11:58.495Z,86.80
2022-11-02T04:15:42.511Z,86.22
2022-11-02T04:19:31.153Z,87.10
2022-11-02T04:23:31.337Z,86.67
2022-11-02T04:27:18.105Z,86.40
2022-11-02T04:31:04.821Z,86.73
2022-11-02T04:34:46.553Z,87.16
2022-11-02T04:38:41.558Z,87.36
2022-11-02T04:42:24.332Z,87.80
2022-11-02T04:46:08.390Z,87.60
2022-11-02T04:49:51.047Z,88.56
2022-11-02T04:53:33.710Z,88.60
2022-11-02T04:57:16.407Z,88.38
2022-11-02T05:00:59.049Z,88.35
2022-11-02T05:04:43.119Z,88.48
2022-11-02T05:08:25.828Z,88.37
2022-11-02T05:12:08.667Z,87.91
2022-11-02T05:15:51.511Z,87.25
2022-11-02T05:19:34.144Z,87.31
2022-11-02T05:23:18.230Z,86.91
2022-11-02T05:27:00.973Z,86.57
2022-11-02T05:30:43.609Z,87.03
2022-11-02T05:34:26.568Z,87.05
2022-11-02T05:38:12.817Z,86.59
2022-11-02T05:41:56.818Z,85.73
2022-11-02T05:45:39.501Z,85.17
2022-11-02T05:49:22.116Z,85.37
2022-11-02T05:53:05.018Z,85.04
2022-11-02T05:56:48.246Z,84.89
2022-11-02T06:00:32.291Z,83.55
2022-11-02T06:04:14.972Z,83.68
2022-11-02T06:08:01.168Z,83.65
2022-11-02T06:11:44.124Z,83.24
2022-11-02T06:15:26.888Z,82.71
2022-11-02T06:19:11.303Z,82.27
2022-11-02T06:22:53.977Z,82.17
2022-11-02T06:26:36.627Z,82.96
2022-11-02T06:30:19.449Z,83.05
2022-11-02T06:34:02.075Z,83.36
2022-11-02T06:37:46.359Z,83.76
2022-11-02T06:41:28.976Z,83.91
2022-11-02T06:45:11.932Z,83.23
2022-11-02T06:48:55.092Z,83.05
2022-11-02T06:52:44.564Z,82.98
2022-11-02T06:56:28.546Z,83.04
2022-11-02T07:00:15.445Z,83.16
2022-11-02T07:04:00.604Z,82.84
2022-11-02T07:07:43.513Z,83.40
2022-11-02T07:11:26.464Z,82.78
2022-11-02T07:15:11.632Z,82.89
2022-11-02T07:18:54.470Z,82.94
2022-11-02T07:22:37.458Z,82.52
2022-11-02T07:26:20.086Z,81.46
2022-11-02T07:30:03.363Z,81.53
2022-11-02T07:33:47.570Z,80.10
2022-11-02T07:37:30.217Z,79.37
2022-11-02T07:41:12.953Z,78.37
2022-11-02T07:44:55.556Z,77.75
2022-11-02T07:48:38.216Z,90.77
2022-11-02T07:52:22.235Z,69.87
2022-11-02T07:56:08.440Z,65.75
2022-11-02T07:59:51.431Z,63.48
2022-11-02T08:03:34.090Z,64.53
2022-11-02T08:07:16.864Z,65.85
2022-11-02T08:11:05.685Z,66.95
2022-11-02T08:14:48.472Z,67.58
2022-11-02T08:18:31.345Z,68.12
2022-11-02T08:22:13.977Z,68.15
2022-11-02T08:26:01.330Z,68.44
2022-11-02T08:29:46.729Z,68.43
2022-11-02T08:33:29.457Z,66.82
2022-11-02T08:37:12.149Z,66.74
2022-11-02T08:40:56.171Z,67.50
2022-11-02T08:44:42.474Z,66.43
2022-11-02T08:48:25.529Z,65.90
2022-11-02T08:52:08.184Z,64.91
2022-11-02T08:55:50.831Z,65.36
2022-11-02T08:59:33.398Z,64.54
2022-11-02T09:03:21.917Z,63.62
2022-11-02T09:07:07.850Z,60.95
2022-11-02T09:10:51.933Z,61.32
2022-11-02T09:14:34.623Z,60.25
2022-11-02T09:18:18.660Z,58.35
2022-11-02T09:22:05.517Z,58.14
2022-11-02T09:25:49.000Z,57.95
2022-11-02T09:29:31.669Z,58.03
2022-11-02T09:33:14.596Z,58.26
2022-11-02T09:36:59.572Z,58.20
2022-11-02T09:40:44.316Z,57.82
2022-11-02T09:44:30.162Z,57.89
2022-11-02T09:48:20.950Z,57.79
2022-11-02T09:52:14.434Z,58.33
2022-11-02T09:56:00.231Z,57.78
2022-11-02T09:59:42.999Z,58.02
2022-11-02T10:03:35.727Z,58.58
2022-11-02T10:07:29.773Z,58.39
2022-11-02T10:11:23.639Z,58.51
2022-11-02T10:15:10.193Z,58.76
2022-11-02T10:18:53.490Z,57.99
2022-11-02T10:22:40.106Z,58.36
2022-11-02T10:26:24.963Z,58.05
2022-11-02T10:30:12.115Z,57.65
2022-11-02T10:33:57.968Z,58.40
2022-11-02T10:37:56.723Z,57.95
2022-11-02T10:41:52.312Z,57.28
2022-11-02T10:45:46.280Z,54.54
2022-11-02T10:49:47.163Z,54.49
2022-11-02T10:53:41.036Z,55.01
2022-11-02T10:57:25.743Z,54.81
2022-11-02T11:01:09.957Z,54.55
2022-11-02T11:04:52.696Z,54.25
2022-11-02T11:08:40.861Z,55.66
2022-11-02T11:12:27.854Z,55.29
2022-11-02T11:16:14.783Z,54.98
2022-11-02T11:20:06.022Z,56.29
2022-11-02T11:23:51.491Z,55.85
2022-11-02T11:27:45.723Z,57.78
2022-11-02T11:31:28.394Z,55.96
2022-11-02T11:35:17.300Z,56.68
2022-11-02T11:39:03.451Z,55.84
2022-11-02T11:42:46.289Z,56.31
2022-11-02T11:46:40.446Z,57.34
2022-11-02T11:50:27.324Z,57.78
2022-11-02T11:54:23.184Z,57.20
2022-11-02T11:58:07.946Z,57.38
2022-11-02T12:01:52.104Z,57.22
2022-11-02T12:05:42.636Z,57.81
2022-11-02T12:09:31.321Z,58.13
2022-11-02T12:13:23.580Z,58.32
2022-11-02T12:17:29.504Z,58.65
2022-11-02T12:21:24.194Z,58.81
2022-11-02T12:25:21.722Z,59.19
2022-11-02T12:29:17.074Z,58.49
2022-11-02T12:33:07.604Z,59.05
2022-11-02T12:41:05.844Z,59.42
2022-11-02T12:45:05.846Z,59.13
2022-11-02T12:48:56.358Z,59.11
2022-11-02T12:52:48.283Z,60.15
2022-11-02T12:56:35.813Z,59.76
2022-11-02T13:00:21.103Z,59.18
2022-11-02T13:04:11.813Z,59.16
2022-11-02T13:08:03.055Z,58.46
2022-11-02T13:11:51.253Z,57.95
2022-11-02T13:15:35.597Z,58.17
2022-11-02T13:19:21.478Z,58.55
2022-11-02T13:23:09.243Z,57.59
2022-11-02T13:26:57.604Z,56.73
2022-11-02T13:30:50.580Z,57.34
2022-11-02T13:34:36.016Z,57.44
2022-11-02T13:38:28.252Z,56.96
2022-11-02T13:42:39.018Z,57.08
2022-11-02T13:46:48.588Z,57.79
2022-11-02T13:50:32.790Z,57.92
2022-11-02T13:54:18.593Z,57.46
2022-11-02T13:58:03.125Z,57.58
2022-11-02T14:01:46.533Z,58.11
2022-11-02T14:05:32.380Z,57.79
2022-11-02T14:09:25.043Z,57.86
2022-11-02T14:13:13.208Z,57.10
2022-11-02T14:17:13.921Z,57.53
2022-11-02T14:20:56.719Z,56.72
2022-11-02T14:24:56.184Z,58.73
2022-11-02T14:28:44.347Z,58.78
2022-11-02T14:32:43.511Z,58.54
2022-11-02T14:36:41.810Z,58.11
2022-11-02T14:40:29.514Z,58.56
2022-11-02T14:44:40.816Z,58.57
2022-11-02T14:48:31.962Z,58.75
2022-11-02T14:52:24.130Z,59.08
2022-11-02T14:56:07.407Z,59.02
2022-11-02T14:59:56.036Z,58.42
2022-11-02T15:03:41.281Z,57.96
2022-11-02T15:07:27.300Z,58.62
2022-11-02T15:11:43.490Z,58.17
2022-11-02T15:15:35.231Z,58.46
2022-11-02T15:19:41.057Z,58.67
2022-11-02T15:23:31.370Z,58.77
2022-11-02T15:27:14.835Z,59.67
2022-11-02T15:31:01.000Z,60.31
2022-11-02T15:34:45.893Z,60.57
2022-11-02T15:38:35.229Z,59.96
2022-11-02T15:42:27.371Z,60.75
2022-11-02T15:46:15.112Z,61.03
2022-11-02T15:50:18.158Z,60.62
2022-11-02T15:54:14.495Z,61.00
2022-11-02T15:58:02.596Z,61.89
2022-11-02T16:01:48.392Z,62.43
2022-11-02T16:05:33.638Z,62.61
2022-11-02T16:09:31.957Z,62.66
2022-11-02T16:13:17.799Z,63.11
2022-11-02T16:17:01.888Z,62.73
2022-11-02T16:20:46.442Z,63.74
2022-11-02T16:24:29.233Z,63.65
2022-11-02T16:28:18.745Z,64.52
2022-11-02T16:32:03.529Z,65.63
2022-11-02T16:35:46.448Z,65.61
2022-11-02T16:39:31.807Z,65.15
2022-11-02T16:43:15.330Z,65.25
2022-11-02T16:46:59.904Z,66.20
2022-11-02T16:51:01.597Z,67.63
2022-11-02T16:54:45.478Z,66.71
2022-11-02T16:58:28.615Z,65.97
2022-11-02T17:02:13.292Z,66.08
2022-11-02T17:05:57.988Z,66.55
2022-11-02T17:09:41.298Z,68.23
2022-11-02T17:13:25.399Z,69.32
2022-11-02T17:17:10.916Z,68.86
2022-11-02T17:21:29.908Z,68.90
2022-11-02T17:25:14.548Z,69.45
2022-11-02T17:29:01.421Z,69.50
2022-11-02T17:32:44.169Z,69.05
2022-11-02T17:36:27.367Z,69.25
2022-11-02T17:40:13.021Z,70.47
2022-11-02T17:43:55.686Z,71.20
2022-11-02T17:47:38.305Z,70.32
2022-11-02T17:51:24.842Z,70.16
2022-11-02T17:55:10.748Z,70.44
2022-11-02T17:58:54.756Z,70.73
2022-11-02T18:02:37.608Z,71.82
2022-11-02T18:06:20.314Z,72.39
2022-11-02T18:10:03.469Z,71.77
2022-11-02T18:13:46.147Z,71.16
2022-11-02T18:17:34.811Z,71.25
2022-11-02T18:21:17.839Z,71.81
2022-11-02T18:25:03.280Z,72.68
2022-11-02T18:28:45.913Z,72.46
2022-11-02T18:32:30.042Z,72.20
2022-11-02T18:36:12.694Z,71.63
2022-11-02T18:39:55.542Z,72.49
2022-11-02T18:43:38.427Z,74.71
2022-11-02T18:47:21.192Z,75.60
2022-11-02T18:51:05.637Z,75.74
2022-11-02T18:54:48.442Z,74.76
2022-11-02T18:58:31.168Z,74.20
2022-11-02T19:02:14.171Z,74.72
2022-11-02T19:06:15.583Z,73.65
2022-11-02T19:10:02.478Z,73.69
2022-11-02T19:13:46.542Z,73.88
2022-11-02T19:17:29.339Z,74.22
2022-11-02T19:21:12.069Z,75.12
2022-11-02T19:24:54.847Z,75.07
2022-11-02T19:28:39.227Z,75.43
2022-11-02T19:32:22.322Z,75.12
2022-11-02T19:36:07.125Z,74.75
2022-11-02T19:39:50.033Z,76.21
2022-11-02T19:43:33.262Z,74.05
2022-11-02T19:47:17.280Z,74.18
2022-11-02T19:51:06.325Z,74.49
2022-11-02T19:54:49.022Z,74.46
2022-11-02T19:58:31.867Z,74.44
2022-11-02T20:02:15.013Z,74.79
2022-11-02T20:06:03.651Z,74.95
2022-11-02T20:09:46.509Z,74.70
2022-11-02T20:13:29.204Z,76.55
2022-11-02T20:17:30.276Z,76.51
2022-11-02T20:21:19.941Z,76.16
2022-11-02T20:25:02.721Z,75.31
2022-11-02T20:28:48.929Z,75.17
2022-11-02T20:32:31.780Z,75.52
2022-11-02T20:36:15.928Z,75.72
2022-11-02T20:39:58.638Z,76.28
2022-11-02T20:43:42.719Z,75.74
2022-11-02T20:47:25.372Z,75.43
2022-11-02T20:51:08.316Z,75.55
2022-11-02T20:54:52.439Z,75.73
2022-11-02T20:58:35.148Z,76.03
2022-11-02T21:02:17.949Z,75.95
2022-11-02T21:06:03.679Z,76.02
2022-11-02T21:09:46.780Z,76.29
2022-11-02T21:13:48.643Z,75.99
2022-11-02T21:17:31.311Z,76.79
2022-11-02T21:21:15.951Z,76.88
2022-11-02T21:24:58.630Z,76.73
2022-11-02T21:28:44.724Z,76.87
2022-11-02T21:32:27.534Z,77.76
2022-11-02T21:36:11.013Z,76.93
2022-11-02T21:39:53.732Z,76.98
2022-11-02T21:43:37.460Z,77.61
2022-11-02T21:47:21.528Z,79.58
2022-11-02T21:51:08.714Z,80.05
2022-11-02T21:54:51.367Z,81.28
2022-11-02T21:58:34.324Z,80.93
2022-11-02T22:02:18.578Z,80.14
2022-11-02T22:06:02.784Z,80.63
2022-11-02T22:09:45.591Z,80.97
2022-11-02T22:13:34.112Z,80.29
2022-11-02T22:17:35.359Z,80.17
2022-11-02T22:21:22.891Z,79.78
2022-11-02T22:25:06.226Z,79.83
2022-11-02T22:28:49.660Z,79.45
2022-11-02T22:32:32.277Z,79.18
2022-11-02T22:36:16.757Z,78.65
2022-11-02T22:40:02.961Z,78.89
2022-11-02T22:43:45.874Z,78.71
2022-11-02T22:47:28.683Z,79.65
2022-11-02T22:51:11.680Z,79.99
2022-11-02T22:54:54.332Z,79.76
2022-11-02T22:58:39.248Z,79.63
2022-11-02T23:02:22.355Z,79.54
2022-11-02T23:06:07.121Z,79.95
2022-11-02T23:09:49.890Z,80.07
2022-11-02T23:13:32.599Z,80.45
2022-11-02T23:17:16.639Z,79.81
2022-11-02T23:20:59.300Z,80.08
2022-11-02T23:25:01.277Z,79.42
2022-11-02T23:29:01.873Z,78.21
2022-11-02T23:32:45.904Z,78.25
2022-11-02T23:36:31.212Z,78.03
2022-11-02T23:40:15.614Z,78.58
2022-11-02T23:44:12.512Z,78.77
2022-11-02T23:48:00.768Z,79.38
2022-11-02T23:52:01.530Z,78.45
2022-11-02T23:56:01.819Z,78.22
2022-11-02T23:59:44.447Z,79.98
